sensor_id;sensor_type;location;lat;lon;timestamp;P1;durP1;ratioP1;P2;durP2;ratioP2
82374;SDS011;72005;50.496;15.798;2023-11-21T00:01:01;3.58;;;2.00;;
82374;SDS011;72005;50.496;15.798;2023-11-21T00:03:38;4.43;;;2.25;;
82374;SDS011;72005;50.496;15.798;2023-11-21T00:06:03;3.97;;;2.10;;
82374;SDS011;72005;50.496;15.798;2023-11-21T00:08:31;7.05;;;2.95;;
82374;SDS011;72005;50.496;15.798;2023-11-21T00:10:56;6.00;;;2.63;;
82374;SDS011;72005;50.496;15.798;2023-11-21T00:13:23;7.15;;;2.50;;
82374;SDS011;72005;50.496;15.798;2023-11-21T00:15:49;5.93;;;2.35;;
82374;SDS011;72005;50.496;15.798;2023-11-21T00:18:15;5.97;;;2.92;;
82374;SDS011;72005;50.496;15.798;2023-11-21T00:20:41;5.85;;;2.15;;
82374;SDS011;72005;50.496;15.798;2023-11-21T00:23:07;4.22;;;2.58;;
82374;SDS011;72005;50.496;15.798;2023-11-21T00:25:35;4.22;;;2.30;;
82374;SDS011;72005;50.496;15.798;2023-11-21T00:28:00;3.65;;;2.30;;
82374;SDS011;72005;50.496;15.798;2023-11-21T00:30:27;4.88;;;2.40;;
82374;SDS011;72005;50.496;15.798;2023-11-21T00:32:54;6.78;;;2.42;;
82374;SDS011;72005;50.496;15.798;2023-11-21T00:35:19;6.35;;;2.47;;
82374;SDS011;72005;50.496;15.798;2023-11-21T00:37:45;4.57;;;2.22;;
82374;SDS011;72005;50.496;15.798;2023-11-21T00:40:11;3.67;;;2.30;;
82374;SDS011;72005;50.496;15.798;2023-11-21T00:42:37;4.50;;;2.28;;
82374;SDS011;72005;50.496;15.798;2023-11-21T00:45:03;11.27;;;3.25;;
82374;SDS011;72005;50.496;15.798;2023-11-21T00:47:29;2.85;;;2.45;;
82374;SDS011;72005;50.496;15.798;2023-11-21T00:49:55;5.43;;;2.70;;
82374;SDS011;72005;50.496;15.798;2023-11-21T00:52:22;3.97;;;2.30;;
82374;SDS011;72005;50.496;15.798;2023-11-21T00:54:47;6.43;;;2.53;;
82374;SDS011;72005;50.496;15.798;2023-11-21T00:57:13;3.58;;;2.60;;
82374;SDS011;72005;50.496;15.798;2023-11-21T00:59:39;3.65;;;2.28;;
82374;SDS011;72005;50.496;15.798;2023-11-21T01:02:05;7.95;;;2.83;;
82374;SDS011;72005;50.496;15.798;2023-11-21T01:04:30;2.97;;;2.28;;
82374;SDS011;72005;50.496;15.798;2023-11-21T01:06:57;2.83;;;1.98;;
82374;SDS011;72005;50.496;15.798;2023-11-21T01:09:23;5.07;;;2.70;;
82374;SDS011;72005;50.496;15.798;2023-11-21T01:11:49;3.85;;;2.10;;
82374;SDS011;72005;50.496;15.798;2023-11-21T01:14:15;3.35;;;2.30;;
82374;SDS011;72005;50.496;15.798;2023-11-21T01:16:43;5.50;;;2.08;;
82374;SDS011;72005;50.496;15.798;2023-11-21T01:19:08;3.75;;;2.42;;
82374;SDS011;72005;50.496;15.798;2023-11-21T01:21:34;3.20;;;2.10;;
82374;SDS011;72005;50.496;15.798;2023-11-21T01:24:00;3.08;;;2.20;;
82374;SDS011;72005;50.496;15.798;2023-11-21T01:26:26;4.95;;;2.58;;
82374;SDS011;72005;50.496;15.798;2023-11-21T01:28:51;2.13;;;1.85;;
82374;SDS011;72005;50.496;15.798;2023-11-21T01:31:17;3.38;;;1.98;;
82374;SDS011;72005;50.496;15.798;2023-11-21T01:33:42;2.80;;;1.88;;
82374;SDS011;72005;50.496;15.798;2023-11-21T01:36:09;4.20;;;1.75;;
82374;SDS011;72005;50.496;15.798;2023-11-21T01:38:35;3.67;;;1.98;;
82374;SDS011;72005;50.496;15.798;2023-11-21T01:41:01;3.70;;;2.15;;
82374;SDS011;72005;50.496;15.798;2023-11-21T01:43:27;2.60;;;1.90;;
82374;SDS011;72005;50.496;15.798;2023-11-21T01:45:55;2.97;;;2.10;;
82374;SDS011;72005;50.496;15.798;2023-11-21T01:48:22;3.38;;;2.03;;
82374;SDS011;72005;50.496;15.798;2023-11-21T01:50:48;3.33;;;2.20;;
82374;SDS011;72005;50.496;15.798;2023-11-21T01:53:14;3.30;;;1.85;;
82374;SDS011;72005;50.496;15.798;2023-11-21T01:55:41;2.78;;;1.73;;
82374;SDS011;72005;50.496;15.798;2023-11-21T01:58:09;6.88;;;2.20;;
82374;SDS011;72005;50.496;15.798;2023-11-21T02:00:36;2.30;;;2.10;;
82374;SDS011;72005;50.496;15.798;2023-11-21T02:03:03;3.63;;;2.00;;
82374;SDS011;72005;50.496;15.798;2023-11-21T02:05:29;2.90;;;2.03;;
82374;SDS011;72005;50.496;15.798;2023-11-21T02:07:55;3.75;;;2.17;;
82374;SDS011;72005;50.496;15.798;2023-11-21T02:10:22;2.97;;;2.10;;
82374;SDS011;72005;50.496;15.798;2023-11-21T02:12:50;3.83;;;1.80;;
82374;SDS011;72005;50.496;15.798;2023-11-21T02:15:18;2.47;;;2.25;;
82374;SDS011;72005;50.496;15.798;2023-11-21T02:17:48;3.08;;;2.20;;
82374;SDS011;72005;50.496;15.798;2023-11-21T02:20:19;3.20;;;2.45;;
82374;SDS011;72005;50.496;15.798;2023-11-21T02:22:50;5.10;;;2.15;;
82374;SDS011;72005;50.496;15.798;2023-11-21T02:25:29;2.60;;;2.10;;
82374;SDS011;72005;50.496;15.798;2023-11-21T02:28:00;2.83;;;2.10;;
82374;SDS011;72005;50.496;15.798;2023-11-21T02:30:27;2.80;;;2.03;;
82374;SDS011;72005;50.496;15.798;2023-11-21T02:32:53;2.03;;;1.88;;
82374;SDS011;72005;50.496;15.798;2023-11-21T02:35:19;3.13;;;2.45;;
82374;SDS011;72005;50.496;15.798;2023-11-21T02:37:46;2.20;;;2.00;;
82374;SDS011;72005;50.496;15.798;2023-11-21T02:40:13;6.97;;;2.40;;
82374;SDS011;72005;50.496;15.798;2023-11-21T02:42:43;3.55;;;2.17;;
82374;SDS011;72005;50.496;15.798;2023-11-21T02:45:18;2.55;;;2.00;;
82374;SDS011;72005;50.496;15.798;2023-11-21T02:47:46;3.30;;;2.20;;
82374;SDS011;72005;50.496;15.798;2023-11-21T02:50:12;2.55;;;2.30;;
82374;SDS011;72005;50.496;15.798;2023-11-21T02:52:38;2.28;;;2.00;;
82374;SDS011;72005;50.496;15.798;2023-11-21T02:55:07;2.60;;;2.08;;
82374;SDS011;72005;50.496;15.798;2023-11-21T02:57:33;5.13;;;2.28;;
82374;SDS011;72005;50.496;15.798;2023-11-21T02:59:59;3.05;;;2.22;;
82374;SDS011;72005;50.496;15.798;2023-11-21T03:02:25;5.40;;;2.42;;
82374;SDS011;72005;50.496;15.798;2023-11-21T03:04:51;2.85;;;2.20;;
82374;SDS011;72005;50.496;15.798;2023-11-21T03:07:17;4.38;;;2.38;;
82374;SDS011;72005;50.496;15.798;2023-11-21T03:09:45;3.53;;;2.70;;
82374;SDS011;72005;50.496;15.798;2023-11-21T03:12:11;4.65;;;2.65;;
82374;SDS011;72005;50.496;15.798;2023-11-21T03:14:40;4.40;;;2.90;;
82374;SDS011;72005;50.496;15.798;2023-11-21T03:17:05;4.85;;;3.20;;
82374;SDS011;72005;50.496;15.798;2023-11-21T03:19:32;3.10;;;2.50;;
82374;SDS011;72005;50.496;15.798;2023-11-21T03:21:57;5.25;;;2.95;;
82374;SDS011;72005;50.496;15.798;2023-11-21T03:24:24;4.40;;;2.83;;
82374;SDS011;72005;50.496;15.798;2023-11-21T03:26:50;3.53;;;3.20;;
82374;SDS011;72005;50.496;15.798;2023-11-21T03:29:16;3.75;;;3.15;;
82374;SDS011;72005;50.496;15.798;2023-11-21T03:31:42;5.05;;;3.50;;
82374;SDS011;72005;50.496;15.798;2023-11-21T03:34:10;5.15;;;3.20;;
82374;SDS011;72005;50.496;15.798;2023-11-21T03:36:40;5.05;;;3.30;;
82374;SDS011;72005;50.496;15.798;2023-11-21T03:39:05;4.38;;;3.30;;
82374;SDS011;72005;50.496;15.798;2023-11-21T03:41:31;4.43;;;3.13;;
82374;SDS011;72005;50.496;15.798;2023-11-21T03:43:57;3.92;;;3.05;;
82374;SDS011;72005;50.496;15.798;2023-11-21T03:46:22;3.08;;;2.75;;
82374;SDS011;72005;50.496;15.798;2023-11-21T03:48:48;5.75;;;2.63;;
82374;SDS011;72005;50.496;15.798;2023-11-21T03:51:14;4.35;;;2.90;;
82374;SDS011;72005;50.496;15.798;2023-11-21T03:53:40;4.35;;;2.80;;
82374;SDS011;72005;50.496;15.798;2023-11-21T03:56:05;7.25;;;2.85;;
82374;SDS011;72005;50.496;15.798;2023-11-21T03:58:31;4.13;;;2.78;;
82374;SDS011;72005;50.496;15.798;2023-11-21T04:00:57;6.22;;;3.20;;
82374;SDS011;72005;50.496;15.798;2023-11-21T04:03:22;4.13;;;3.15;;
82374;SDS011;72005;50.496;15.798;2023-11-21T04:05:48;3.30;;;3.00;;
82374;SDS011;72005;50.496;15.798;2023-11-21T04:08:14;5.25;;;3.20;;
82374;SDS011;72005;50.496;15.798;2023-11-21T04:10:39;3.63;;;3.10;;
82374;SDS011;72005;50.496;15.798;2023-11-21T04:13:05;4.30;;;2.80;;
82374;SDS011;72005;50.496;15.798;2023-11-21T04:15:32;6.65;;;3.10;;
82374;SDS011;72005;50.496;15.798;2023-11-21T04:17:58;5.90;;;3.30;;
82374;SDS011;72005;50.496;15.798;2023-11-21T04:20:24;4.20;;;3.20;;
82374;SDS011;72005;50.496;15.798;2023-11-21T04:22:50;4.43;;;2.95;;
82374;SDS011;72005;50.496;15.798;2023-11-21T04:25:16;5.75;;;3.20;;
82374;SDS011;72005;50.496;15.798;2023-11-21T04:27:43;4.10;;;3.30;;
82374;SDS011;72005;50.496;15.798;2023-11-21T04:30:10;3.90;;;3.42;;
82374;SDS011;72005;50.496;15.798;2023-11-21T04:32:36;8.18;;;3.05;;
82374;SDS011;72005;50.496;15.798;2023-11-21T04:35:02;3.72;;;3.22;;
82374;SDS011;72005;50.496;15.798;2023-11-21T04:37:29;4.65;;;3.30;;
82374;SDS011;72005;50.496;15.798;2023-11-21T04:39:55;5.18;;;3.17;;
82374;SDS011;72005;50.496;15.798;2023-11-21T04:42:20;4.13;;;3.08;;
82374;SDS011;72005;50.496;15.798;2023-11-21T04:44:46;5.13;;;3.30;;
82374;SDS011;72005;50.496;15.798;2023-11-21T04:47:12;6.43;;;3.42;;
82374;SDS011;72005;50.496;15.798;2023-11-21T04:49:39;5.45;;;3.05;;
82374;SDS011;72005;50.496;15.798;2023-11-21T04:52:07;5.00;;;2.90;;
82374;SDS011;72005;50.496;15.798;2023-11-21T04:54:35;4.38;;;3.15;;
82374;SDS011;72005;50.496;15.798;2023-11-21T04:57:01;3.97;;;3.53;;
82374;SDS011;72005;50.496;15.798;2023-11-21T04:59:27;4.95;;;3.20;;
82374;SDS011;72005;50.496;15.798;2023-11-21T05:01:53;3.70;;;3.38;;
82374;SDS011;72005;50.496;15.798;2023-11-21T05:04:19;4.75;;;3.53;;
82374;SDS011;72005;50.496;15.798;2023-11-21T05:06:47;3.50;;;3.20;;
82374;SDS011;72005;50.496;15.798;2023-11-21T05:09:13;3.83;;;3.35;;
82374;SDS011;72005;50.496;15.798;2023-11-21T05:11:39;3.70;;;3.22;;
82374;SDS011;72005;50.496;15.798;2023-11-21T05:14:06;4.53;;;3.30;;
82374;SDS011;72005;50.496;15.798;2023-11-21T05:16:32;3.83;;;3.22;;
82374;SDS011;72005;50.496;15.798;2023-11-21T05:18:59;4.00;;;3.60;;
82374;SDS011;72005;50.496;15.798;2023-11-21T05:21:29;3.58;;;3.20;;
82374;SDS011;72005;50.496;15.798;2023-11-21T05:23:58;4.80;;;3.35;;
82374;SDS011;72005;50.496;15.798;2023-11-21T05:26:24;3.67;;;3.30;;
82374;SDS011;72005;50.496;15.798;2023-11-21T05:28:50;3.45;;;3.00;;
82374;SDS011;72005;50.496;15.798;2023-11-21T05:31:15;4.80;;;3.35;;
82374;SDS011;72005;50.496;15.798;2023-11-21T05:33:41;3.50;;;3.00;;
82374;SDS011;72005;50.496;15.798;2023-11-21T05:36:07;6.38;;;3.30;;
82374;SDS011;72005;50.496;15.798;2023-11-21T05:38:33;4.80;;;3.55;;
82374;SDS011;72005;50.496;15.798;2023-11-21T05:41:01;4.72;;;3.20;;
82374;SDS011;72005;50.496;15.798;2023-11-21T05:43:27;4.72;;;3.25;;
82374;SDS011;72005;50.496;15.798;2023-11-21T05:45:55;5.95;;;3.28;;
82374;SDS011;72005;50.496;15.798;2023-11-21T05:48:20;4.35;;;2.95;;
82374;SDS011;72005;50.496;15.798;2023-11-21T05:50:46;4.53;;;3.45;;
82374;SDS011;72005;50.496;15.798;2023-11-21T05:53:14;3.67;;;3.20;;
82374;SDS011;72005;50.496;15.798;2023-11-21T05:55:41;4.68;;;3.20;;
82374;SDS011;72005;50.496;15.798;2023-11-21T05:58:07;5.82;;;3.85;;
82374;SDS011;72005;50.496;15.798;2023-11-21T06:00:33;4.47;;;3.33;;
82374;SDS011;72005;50.496;15.798;2023-11-21T06:03:00;6.30;;;3.80;;
82374;SDS011;72005;50.496;15.798;2023-11-21T06:05:26;3.50;;;3.20;;
82374;SDS011;72005;50.496;15.798;2023-11-21T06:07:52;5.63;;;4.20;;
82374;SDS011;72005;50.496;15.798;2023-11-21T06:10:20;4.95;;;4.10;;
82374;SDS011;72005;50.496;15.798;2023-11-21T06:12:46;6.65;;;3.78;;
82374;SDS011;72005;50.496;15.798;2023-11-21T06:15:12;4.30;;;3.90;;
82374;SDS011;72005;50.496;15.798;2023-11-21T06:17:42;7.40;;;4.40;;
82374;SDS011;72005;50.496;15.798;2023-11-21T06:20:09;4.60;;;3.60;;
82374;SDS011;72005;50.496;15.798;2023-11-21T06:22:40;6.28;;;4.10;;
82374;SDS011;72005;50.496;15.798;2023-11-21T06:25:07;6.38;;;3.70;;
82374;SDS011;72005;50.496;15.798;2023-11-21T06:27:38;5.78;;;3.83;;
82374;SDS011;72005;50.496;15.798;2023-11-21T06:30:05;7.63;;;4.03;;
82374;SDS011;72005;50.496;15.798;2023-11-21T06:32:32;4.65;;;3.53;;
82374;SDS011;72005;50.496;15.798;2023-11-21T06:34:58;4.88;;;3.35;;
82374;SDS011;72005;50.496;15.798;2023-11-21T06:37:27;4.32;;;3.30;;
82374;SDS011;72005;50.496;15.798;2023-11-21T06:39:54;7.85;;;3.83;;
82374;SDS011;72005;50.496;15.798;2023-11-21T06:42:22;5.15;;;3.50;;
82374;SDS011;72005;50.496;15.798;2023-11-21T06:44:48;4.68;;;3.55;;
82374;SDS011;72005;50.496;15.798;2023-11-21T06:47:14;4.35;;;3.00;;
82374;SDS011;72005;50.496;15.798;2023-11-21T06:49:41;5.63;;;3.10;;
82374;SDS011;72005;50.496;15.798;2023-11-21T06:52:08;5.97;;;3.42;;
82374;SDS011;72005;50.496;15.798;2023-11-21T06:54:33;4.50;;;3.35;;
82374;SDS011;72005;50.496;15.798;2023-11-21T06:57:00;5.15;;;3.00;;
82374;SDS011;72005;50.496;15.798;2023-11-21T06:59:28;5.55;;;3.40;;
82374;SDS011;72005;50.496;15.798;2023-11-21T07:01:53;6.95;;;3.00;;
82374;SDS011;72005;50.496;15.798;2023-11-21T07:04:19;7.10;;;3.65;;
82374;SDS011;72005;50.496;15.798;2023-11-21T07:06:45;5.75;;;3.60;;
82374;SDS011;72005;50.496;15.798;2023-11-21T07:09:11;6.78;;;3.67;;
82374;SDS011;72005;50.496;15.798;2023-11-21T07:11:37;7.32;;;3.70;;
82374;SDS011;72005;50.496;15.798;2023-11-21T07:14:06;3.63;;;3.30;;
82374;SDS011;72005;50.496;15.798;2023-11-21T07:16:36;6.82;;;3.95;;
82374;SDS011;72005;50.496;15.798;2023-11-21T07:19:05;6.60;;;3.67;;
82374;SDS011;72005;50.496;15.798;2023-11-21T07:21:34;6.45;;;3.50;;
82374;SDS011;72005;50.496;15.798;2023-11-21T07:24:01;5.03;;;3.58;;
82374;SDS011;72005;50.496;15.798;2023-11-21T07:26:28;5.13;;;3.97;;
82374;SDS011;72005;50.496;15.798;2023-11-21T07:28:54;3.38;;;2.88;;
82374;SDS011;72005;50.496;15.798;2023-11-21T07:31:19;4.03;;;3.15;;
82374;SDS011;72005;50.496;15.798;2023-11-21T07:33:48;4.45;;;3.38;;
82374;SDS011;72005;50.496;15.798;2023-11-21T07:36:14;5.28;;;3.88;;
82374;SDS011;72005;50.496;15.798;2023-11-21T07:38:41;5.45;;;3.42;;
82374;SDS011;72005;50.496;15.798;2023-11-21T07:41:07;5.90;;;3.40;;
82374;SDS011;72005;50.496;15.798;2023-11-21T07:43:35;4.05;;;2.92;;
82374;SDS011;72005;50.496;15.798;2023-11-21T07:46:01;5.15;;;2.85;;
82374;SDS011;72005;50.496;15.798;2023-11-21T07:48:30;6.82;;;3.08;;
82374;SDS011;72005;50.496;15.798;2023-11-21T07:50:59;3.55;;;2.85;;
82374;SDS011;72005;50.496;15.798;2023-11-21T07:53:26;2.47;;;2.28;;
82374;SDS011;72005;50.496;15.798;2023-11-21T07:55:58;6.13;;;2.58;;
82374;SDS011;72005;50.496;15.798;2023-11-21T07:58:28;4.47;;;2.78;;
82374;SDS011;72005;50.496;15.798;2023-11-21T08:00:53;4.88;;;2.50;;
82374;SDS011;72005;50.496;15.798;2023-11-21T08:03:19;5.75;;;3.55;;
82374;SDS011;72005;50.496;15.798;2023-11-21T08:05:46;18.48;;;9.75;;
82374;SDS011;72005;50.496;15.798;2023-11-21T08:08:12;25.10;;;11.90;;
82374;SDS011;72005;50.496;15.798;2023-11-21T08:10:38;15.90;;;8.82;;
82374;SDS011;72005;50.496;15.798;2023-11-21T08:13:05;13.05;;;9.55;;
82374;SDS011;72005;50.496;15.798;2023-11-21T08:15:31;10.95;;;7.18;;
82374;SDS011;72005;50.496;15.798;2023-11-21T08:17:58;9.48;;;5.18;;
82374;SDS011;72005;50.496;15.798;2023-11-21T08:20:26;6.93;;;5.30;;
82374;SDS011;72005;50.496;15.798;2023-11-21T08:22:52;5.88;;;4.30;;
82374;SDS011;72005;50.496;15.798;2023-11-21T08:25:18;6.95;;;4.82;;
82374;SDS011;72005;50.496;15.798;2023-11-21T08:27:45;9.75;;;7.28;;
82374;SDS011;72005;50.496;15.798;2023-11-21T08:30:11;7.90;;;5.07;;
82374;SDS011;72005;50.496;15.798;2023-11-21T08:32:39;3.60;;;3.03;;
82374;SDS011;72005;50.496;15.798;2023-11-21T08:35:07;4.88;;;2.42;;
82374;SDS011;72005;50.496;15.798;2023-11-21T08:37:33;12.75;;;8.52;;
82374;SDS011;72005;50.496;15.798;2023-11-21T08:40:02;4.80;;;3.95;;
82374;SDS011;72005;50.496;15.798;2023-11-21T08:42:37;7.07;;;3.65;;
82374;SDS011;72005;50.496;15.798;2023-11-21T08:45:03;2.60;;;2.00;;
82374;SDS011;72005;50.496;15.798;2023-11-21T08:47:30;4.82;;;2.58;;
82374;SDS011;72005;50.496;15.798;2023-11-21T08:49:55;4.57;;;2.40;;
82374;SDS011;72005;50.496;15.798;2023-11-21T08:52:21;4.22;;;2.28;;
82374;SDS011;72005;50.496;15.798;2023-11-21T08:54:48;4.68;;;2.22;;
82374;SDS011;72005;50.496;15.798;2023-11-21T08:57:25;3.70;;;2.03;;
82374;SDS011;72005;50.496;15.798;2023-11-21T08:59:51;4.47;;;2.05;;
82374;SDS011;72005;50.496;15.798;2023-11-21T09:02:23;15.63;;;7.85;;
82374;SDS011;72005;50.496;15.798;2023-11-21T09:04:48;7.30;;;3.40;;
82374;SDS011;72005;50.496;15.798;2023-11-21T09:07:16;6.18;;;2.72;;
82374;SDS011;72005;50.496;15.798;2023-11-21T09:09:41;6.00;;;2.75;;
82374;SDS011;72005;50.496;15.798;2023-11-21T09:12:07;4.63;;;2.53;;
82374;SDS011;72005;50.496;15.798;2023-11-21T09:14:33;5.07;;;2.22;;
82374;SDS011;72005;50.496;15.798;2023-11-21T09:16:59;6.15;;;3.58;;
82374;SDS011;72005;50.496;15.798;2023-11-21T09:19:25;3.95;;;2.30;;
82374;SDS011;72005;50.496;15.798;2023-11-21T09:21:51;5.15;;;2.65;;
82374;SDS011;72005;50.496;15.798;2023-11-21T09:24:17;4.57;;;2.10;;
82374;SDS011;72005;50.496;15.798;2023-11-21T09:26:42;5.82;;;2.20;;
82374;SDS011;72005;50.496;15.798;2023-11-21T09:29:08;4.93;;;2.88;;
82374;SDS011;72005;50.496;15.798;2023-11-21T09:31:34;5.13;;;2.70;;
82374;SDS011;72005;50.496;15.798;2023-11-21T09:34:00;6.00;;;2.42;;
82374;SDS011;72005;50.496;15.798;2023-11-21T09:36:27;4.53;;;2.47;;
82374;SDS011;72005;50.496;15.798;2023-11-21T09:38:55;4.47;;;3.10;;
82374;SDS011;72005;50.496;15.798;2023-11-21T09:41:23;7.03;;;3.35;;
82374;SDS011;72005;50.496;15.798;2023-11-21T09:44:13;5.78;;;3.03;;
82374;SDS011;72005;50.496;15.798;2023-11-21T09:46:43;8.35;;;3.78;;
82374;SDS011;72005;50.496;15.798;2023-11-21T09:49:09;5.75;;;2.67;;
82374;SDS011;72005;50.496;15.798;2023-11-21T09:51:42;9.95;;;4.50;;
82374;SDS011;72005;50.496;15.798;2023-11-21T09:54:09;4.90;;;2.30;;
82374;SDS011;72005;50.496;15.798;2023-11-21T09:56:39;7.45;;;2.90;;
82374;SDS011;72005;50.496;15.798;2023-11-21T09:59:05;6.82;;;3.38;;
82374;SDS011;72005;50.496;15.798;2023-11-21T10:01:36;6.63;;;3.10;;
82374;SDS011;72005;50.496;15.798;2023-11-21T10:04:02;6.43;;;3.35;;
82374;SDS011;72005;50.496;15.798;2023-11-21T10:06:28;5.90;;;2.65;;
82374;SDS011;72005;50.496;15.798;2023-11-21T10:08:56;3.15;;;2.45;;
82374;SDS011;72005;50.496;15.798;2023-11-21T10:11:25;4.57;;;2.55;;
82374;SDS011;72005;50.496;15.798;2023-11-21T10:13:55;6.78;;;3.13;;
82374;SDS011;72005;50.496;15.798;2023-11-21T10:16:25;9.73;;;3.67;;
82374;SDS011;72005;50.496;15.798;2023-11-21T10:18:52;6.50;;;2.80;;
82374;SDS011;72005;50.496;15.798;2023-11-21T10:21:21;4.82;;;2.70;;
82374;SDS011;72005;50.496;15.798;2023-11-21T10:23:47;5.38;;;2.47;;
82374;SDS011;72005;50.496;15.798;2023-11-21T10:26:13;4.35;;;2.60;;
82374;SDS011;72005;50.496;15.798;2023-11-21T10:28:54;6.60;;;2.25;;
82374;SDS011;72005;50.496;15.798;2023-11-21T10:31:26;5.65;;;2.50;;
82374;SDS011;72005;50.496;15.798;2023-11-21T10:33:52;4.57;;;2.55;;
82374;SDS011;72005;50.496;15.798;2023-11-21T10:36:28;5.97;;;2.13;;
82374;SDS011;72005;50.496;15.798;2023-11-21T10:38:54;6.75;;;2.50;;
82374;SDS011;72005;50.496;15.798;2023-11-21T10:41:20;5.85;;;2.40;;
82374;SDS011;72005;50.496;15.798;2023-11-21T10:43:46;5.90;;;2.00;;
82374;SDS011;72005;50.496;15.798;2023-11-21T10:46:13;4.47;;;2.15;;
82374;SDS011;72005;50.496;15.798;2023-11-21T10:48:40;3.97;;;2.55;;
82374;SDS011;72005;50.496;15.798;2023-11-21T10:51:07;7.85;;;2.60;;
82374;SDS011;72005;50.496;15.798;2023-11-21T10:53:38;4.60;;;2.42;;
82374;SDS011;72005;50.496;15.798;2023-11-21T10:56:08;5.97;;;2.25;;
82374;SDS011;72005;50.496;15.798;2023-11-21T10:58:37;2.80;;;1.92;;
82374;SDS011;72005;50.496;15.798;2023-11-21T11:01:05;8.40;;;2.60;;
82374;SDS011;72005;50.496;15.798;2023-11-21T11:03:32;3.20;;;1.95;;
82374;SDS011;72005;50.496;15.798;2023-11-21T11:05:59;4.78;;;2.40;;
82374;SDS011;72005;50.496;15.798;2023-11-21T11:08:25;3.22;;;2.17;;
82374;SDS011;72005;50.496;15.798;2023-11-21T11:10:53;5.57;;;2.35;;
82374;SDS011;72005;50.496;15.798;2023-11-21T11:13:18;5.40;;;2.65;;
82374;SDS011;72005;50.496;15.798;2023-11-21T11:15:47;3.85;;;2.08;;
82374;SDS011;72005;50.496;15.798;2023-11-21T11:18:13;3.88;;;1.90;;
82374;SDS011;72005;50.496;15.798;2023-11-21T11:20:40;8.68;;;4.78;;
82374;SDS011;72005;50.496;15.798;2023-11-21T11:26:16;38.10;;;19.38;;
82374;SDS011;72005;50.496;15.798;2023-11-21T11:34:48;5.32;;;2.50;;
82374;SDS011;72005;50.496;15.798;2023-11-21T11:37:22;2.33;;;1.95;;
82374;SDS011;72005;50.496;15.798;2023-11-21T11:39:48;6.10;;;3.47;;
82374;SDS011;72005;50.496;15.798;2023-11-21T11:42:15;6.85;;;3.70;;
82374;SDS011;72005;50.496;15.798;2023-11-21T11:47:27;7.82;;;4.25;;
82374;SDS011;72005;50.496;15.798;2023-11-21T11:52:33;5.00;;;2.10;;
82374;SDS011;72005;50.496;15.798;2023-11-21T11:55:05;4.00;;;2.00;;
82374;SDS011;72005;50.496;15.798;2023-11-21T11:57:45;7.80;;;2.83;;
82374;SDS011;72005;50.496;15.798;2023-11-21T12:02:55;6.85;;;3.88;;
82374;SDS011;72005;50.496;15.798;2023-11-21T12:05:24;7.25;;;3.47;;
82374;SDS011;72005;50.496;15.798;2023-11-21T12:07:57;5.47;;;2.53;;
82374;SDS011;72005;50.496;15.798;2023-11-21T12:10:25;4.32;;;2.30;;
82374;SDS011;72005;50.496;15.798;2023-11-21T12:12:54;3.33;;;2.03;;
82374;SDS011;72005;50.496;15.798;2023-11-21T12:15:21;5.07;;;3.63;;
82374;SDS011;72005;50.496;15.798;2023-11-21T12:17:47;4.60;;;2.97;;
82374;SDS011;72005;50.496;15.798;2023-11-21T12:20:20;4.03;;;2.65;;
82374;SDS011;72005;50.496;15.798;2023-11-21T12:22:48;3.65;;;2.55;;
82374;SDS011;72005;50.496;15.798;2023-11-21T12:27:55;2.22;;;1.77;;
82374;SDS011;72005;50.496;15.798;2023-11-21T12:30:23;2.30;;;1.73;;
82374;SDS011;72005;50.496;15.798;2023-11-21T12:33:01;5.10;;;3.28;;
82374;SDS011;72005;50.496;15.798;2023-11-21T12:35:30;5.38;;;2.70;;
82374;SDS011;72005;50.496;15.798;2023-11-21T12:38:01;6.45;;;3.53;;
82374;SDS011;72005;50.496;15.798;2023-11-21T12:40:30;3.42;;;2.33;;
82374;SDS011;72005;50.496;15.798;2023-11-21T12:42:56;6.47;;;4.00;;
82374;SDS011;72005;50.496;15.798;2023-11-21T12:45:27;6.93;;;3.90;;
82374;SDS011;72005;50.496;15.798;2023-11-21T12:47:55;8.27;;;4.38;;
82374;SDS011;72005;50.496;15.798;2023-11-21T12:50:29;4.63;;;3.20;;
82374;SDS011;72005;50.496;15.798;2023-11-21T12:53:00;6.05;;;3.90;;
82374;SDS011;72005;50.496;15.798;2023-11-21T12:55:30;5.40;;;3.80;;
82374;SDS011;72005;50.496;15.798;2023-11-21T12:57:57;5.72;;;3.72;;
82374;SDS011;72005;50.496;15.798;2023-11-21T13:00:32;4.18;;;2.92;;
82374;SDS011;72005;50.496;15.798;2023-11-21T13:03:03;8.10;;;3.85;;
82374;SDS011;72005;50.496;15.798;2023-11-21T13:05:30;3.53;;;2.80;;
82374;SDS011;72005;50.496;15.798;2023-11-21T13:07:59;4.93;;;2.80;;
82374;SDS011;72005;50.496;15.798;2023-11-21T13:10:28;7.05;;;2.92;;
82374;SDS011;72005;50.496;15.798;2023-11-21T13:12:56;5.85;;;2.97;;
82374;SDS011;72005;50.496;15.798;2023-11-21T13:15:29;6.38;;;3.08;;
82374;SDS011;72005;50.496;15.798;2023-11-21T13:17:57;4.22;;;2.78;;
82374;SDS011;72005;50.496;15.798;2023-11-21T13:20:23;21.00;;;12.10;;
82374;SDS011;72005;50.496;15.798;2023-11-21T13:22:53;65.85;;;35.50;;
82374;SDS011;72005;50.496;15.798;2023-11-21T13:25:22;40.25;;;21.00;;
82374;SDS011;72005;50.496;15.798;2023-11-21T13:27:49;16.77;;;11.25;;
82374;SDS011;72005;50.496;15.798;2023-11-21T13:30:16;6.93;;;4.63;;
82374;SDS011;72005;50.496;15.798;2023-11-21T13:32:43;4.60;;;3.28;;
82374;SDS011;72005;50.496;15.798;2023-11-21T13:35:11;7.80;;;4.70;;
82374;SDS011;72005;50.496;15.798;2023-11-21T13:37:51;2.40;;;1.95;;
82374;SDS011;72005;50.496;15.798;2023-11-21T13:40:21;4.15;;;2.92;;
82374;SDS011;72005;50.496;15.798;2023-11-21T13:42:51;5.57;;;2.40;;
82374;SDS011;72005;50.496;15.798;2023-11-21T13:45:20;8.90;;;7.30;;
82374;SDS011;72005;50.496;15.798;2023-11-21T13:47:51;4.18;;;3.03;;
82374;SDS011;72005;50.496;15.798;2023-11-21T13:50:20;7.15;;;3.95;;
82374;SDS011;72005;50.496;15.798;2023-11-21T13:52:51;12.43;;;8.60;;
82374;SDS011;72005;50.496;15.798;2023-11-21T13:55:18;14.25;;;8.77;;
82374;SDS011;72005;50.496;15.798;2023-11-21T13:57:45;13.35;;;9.75;;
82374;SDS011;72005;50.496;15.798;2023-11-21T14:00:15;14.07;;;9.40;;
82374;SDS011;72005;50.496;15.798;2023-11-21T14:03:00;9.90;;;7.15;;
82374;SDS011;72005;50.496;15.798;2023-11-21T14:05:26;8.65;;;6.07;;
82374;SDS011;72005;50.496;15.798;2023-11-21T14:07:55;8.85;;;6.78;;
82374;SDS011;72005;50.496;15.798;2023-11-21T14:10:32;11.50;;;8.98;;
82374;SDS011;72005;50.496;15.798;2023-11-21T14:13:11;7.45;;;5.30;;
82374;SDS011;72005;50.496;15.798;2023-11-21T14:15:41;8.85;;;6.80;;
82374;SDS011;72005;50.496;15.798;2023-11-21T14:18:08;6.75;;;4.88;;
82374;SDS011;72005;50.496;15.798;2023-11-21T14:20:39;5.22;;;3.90;;
82374;SDS011;72005;50.496;15.798;2023-11-21T14:23:06;9.57;;;5.45;;
82374;SDS011;72005;50.496;15.798;2023-11-21T14:25:32;6.82;;;5.57;;
82374;SDS011;72005;50.496;15.798;2023-11-21T14:27:59;8.43;;;6.10;;
82374;SDS011;72005;50.496;15.798;2023-11-21T14:30:25;14.98;;;10.13;;
82374;SDS011;72005;50.496;15.798;2023-11-21T14:32:52;11.73;;;7.07;;
82374;SDS011;72005;50.496;15.798;2023-11-21T14:35:18;15.48;;;7.82;;
82374;SDS011;72005;50.496;15.798;2023-11-21T14:37:44;9.93;;;6.15;;
82374;SDS011;72005;50.496;15.798;2023-11-21T14:40:11;6.38;;;4.18;;
82374;SDS011;72005;50.496;15.798;2023-11-21T14:42:37;3.20;;;2.38;;
82374;SDS011;72005;50.496;15.798;2023-11-21T14:45:05;7.90;;;4.88;;
82374;SDS011;72005;50.496;15.798;2023-11-21T14:47:32;22.33;;;11.02;;
82374;SDS011;72005;50.496;15.798;2023-11-21T14:50:00;8.15;;;4.22;;
82374;SDS011;72005;50.496;15.798;2023-11-21T14:52:47;3.88;;;2.53;;
82374;SDS011;72005;50.496;15.798;2023-11-21T14:55:20;2.70;;;2.15;;